sensor_id;sensor_type;location;lat;lon;timestamp;pressure;altitude;pressure_sealevel;temperature;humidity
61086;BME280;46967;48.876;2.136;2023-05-07T00:00:28;101240.22;;;44.41;nan
61086;BME280;46967;48.876;2.136;2023-05-07T00:02:53;101237.50;;;44.41;nan
61086;BME280;46967;48.876;2.136;2023-05-07T00:05:19;101234.22;;;44.44;nan
61086;BME280;46967;48.876;2.136;2023-05-07T00:07:44;101247.84;;;44.34;nan
61086;BME280;46967;48.876;2.136;2023-05-07T00:10:10;101246.38;;;44.21;nan
61086;BME280;46967;48.876;2.136;2023-05-07T00:12:37;101241.31;;;44.08;nan
61086;BME280;46967;48.876;2.136;2023-05-07T00:15:03;101243.00;;;44.14;nan
61086;BME280;46967;48.876;2.136;2023-05-07T00:17:29;101249.94;;;44.22;nan
61086;BME280;46967;48.876;2.136;2023-05-07T00:19:54;101255.75;;;44.30;nan
61086;BME280;46967;48.876;2.136;2023-05-07T00:22:20;101257.38;;;44.31;nan
61086;BME280;46967;48.876;2.136;2023-05-07T00:24:46;101259.50;;;44.19;nan
61086;BME280;46967;48.876;2.136;2023-05-07T00:27:11;101252.69;;;44.27;nan
61086;BME280;46967;48.876;2.136;2023-05-07T00:29:36;101254.91;;;44.30;nan
61086;BME280;46967;48.876;2.136;2023-05-07T00:32:02;101259.38;;;44.41;nan
61086;BME280;46967;48.876;2.136;2023-05-07T00:34:27;101259.44;;;44.52;nan
61086;BME280;46967;48.876;2.136;2023-05-07T00:36:52;101249.34;;;44.52;nan
61086;BME280;46967;48.876;2.136;2023-05-07T00:39:18;101254.38;;;44.65;nan
61086;BME280;46967;48.876;2.136;2023-05-07T00:41:43;101256.66;;;44.84;nan
61086;BME280;46967;48.876;2.136;2023-05-07T00:44:09;101243.56;;;44.91;nan
61086;BME280;46967;48.876;2.136;2023-05-07T00:46:34;101235.44;;;45.01;nan
61086;BME280;46967;48.876;2.136;2023-05-07T00:49:00;101242.03;;;45.06;nan
61086;BME280;46967;48.876;2.136;2023-05-07T00:51:26;101240.84;;;44.96;nan
61086;BME280;46967;48.876;2.136;2023-05-07T00:53:53;101243.03;;;44.94;nan
61086;BME280;46967;48.876;2.136;2023-05-07T00:56:20;101237.31;;;44.96;nan
61086;BME280;46967;48.876;2.136;2023-05-07T00:58:46;101230.44;;;44.88;nan
61086;BME280;46967;48.876;2.136;2023-05-07T01:01:12;101236.81;;;44.99;nan
61086;BME280;46967;48.876;2.136;2023-05-07T01:03:37;101238.69;;;44.98;nan
61086;BME280;46967;48.876;2.136;2023-05-07T01:06:04;101231.16;;;45.21;nan
61086;BME280;46967;48.876;2.136;2023-05-07T01:08:32;101234.44;;;45.28;nan
61086;BME280;46967;48.876;2.136;2023-05-07T01:10:58;101224.88;;;45.36;nan
61086;BME280;46967;48.876;2.136;2023-05-07T01:13:24;101215.84;;;45.35;nan
61086;BME280;46967;48.876;2.136;2023-05-07T01:15:50;101211.81;;;45.48;nan
61086;BME280;46967;48.876;2.136;2023-05-07T01:18:15;101215.34;;;45.44;nan
61086;BME280;46967;48.876;2.136;2023-05-07T01:20:41;101214.47;;;45.28;nan
61086;BME280;46967;48.876;2.136;2023-05-07T01:23:07;101215.00;;;45.30;nan
61086;BME280;46967;48.876;2.136;2023-05-07T01:25:34;101213.34;;;45.18;nan
61086;BME280;46967;48.876;2.136;2023-05-07T01:27:59;101208.78;;;45.45;nan
61086;BME280;46967;48.876;2.136;2023-05-07T01:30:26;101217.00;;;45.50;nan
61086;BME280;46967;48.876;2.136;2023-05-07T01:33:09;101223.56;;;45.49;nan
61086;BME280;46967;48.876;2.136;2023-05-07T01:35:39;101217.00;;;45.45;nan
61086;BME280;46967;48.876;2.136;2023-05-07T01:38:05;101213.13;;;45.30;nan
61086;BME280;46967;48.876;2.136;2023-05-07T01:40:32;101219.66;;;45.24;nan
61086;BME280;46967;48.876;2.136;2023-05-07T01:42:59;101222.94;;;45.21;nan
61086;BME280;46967;48.876;2.136;2023-05-07T01:45:25;101225.47;;;45.38;nan
61086;BME280;46967;48.876;2.136;2023-05-07T01:47:51;101219.41;;;45.36;nan
61086;BME280;46967;48.876;2.136;2023-05-07T01:50:19;101224.13;;;45.46;nan
61086;BME280;46967;48.876;2.136;2023-05-07T01:52:46;101214.75;;;45.31;nan
61086;BME280;46967;48.876;2.136;2023-05-07T01:55:12;101215.84;;;45.30;nan
61086;BME280;46967;48.876;2.136;2023-05-07T01:57:37;101224.53;;;45.12;nan
61086;BME280;46967;48.876;2.136;2023-05-07T02:00:03;101229.09;;;44.96;nan
61086;BME280;46967;48.876;2.136;2023-05-07T02:02:30;101237.66;;;44.62;nan
61086;BME280;46967;48.876;2.136;2023-05-07T02:04:56;101233.28;;;44.61;nan
61086;BME280;46967;48.876;2.136;2023-05-07T02:07:21;101233.06;;;44.67;nan
61086;BME280;46967;48.876;2.136;2023-05-07T02:09:47;101235.50;;;44.64;nan
61086;BME280;46967;48.876;2.136;2023-05-07T02:12:12;101236.31;;;44.64;nan
61086;BME280;46967;48.876;2.136;2023-05-07T02:14:37;101241.53;;;44.71;nan
61086;BME280;46967;48.876;2.136;2023-05-07T02:17:03;101240.19;;;44.74;nan
61086;BME280;46967;48.876;2.136;2023-05-07T02:19:28;101239.88;;;44.65;nan
61086;BME280;46967;48.876;2.136;2023-05-07T02:21:53;101242.75;;;44.48;nan
61086;BME280;46967;48.876;2.136;2023-05-07T02:24:19;101244.50;;;44.59;nan
61086;BME280;46967;48.876;2.136;2023-05-07T02:26:44;101242.56;;;44.60;nan
61086;BME280;46967;48.876;2.136;2023-05-07T02:29:10;101243.06;;;44.57;nan
61086;BME280;46967;48.876;2.136;2023-05-07T02:31:35;101249.81;;;44.39;nan
61086;BME280;46967;48.876;2.136;2023-05-07T02:34:01;101254.13;;;44.35;nan
61086;BME280;46967;48.876;2.136;2023-05-07T02:36:26;101247.91;;;44.44;nan
61086;BME280;46967;48.876;2.136;2023-05-07T02:38:52;101247.34;;;44.10;nan
61086;BME280;46967;48.876;2.136;2023-05-07T02:41:17;101259.47;;;43.92;nan
61086;BME280;46967;48.876;2.136;2023-05-07T02:43:42;101260.63;;;43.96;nan
61086;BME280;46967;48.876;2.136;2023-05-07T02:46:08;101264.44;;;43.95;nan
61086;BME280;46967;48.876;2.136;2023-05-07T02:48:34;101257.91;;;43.74;nan
61086;BME280;46967;48.876;2.136;2023-05-07T02:51:00;101259.66;;;43.80;nan
61086;BME280;46967;48.876;2.136;2023-05-07T02:53:26;101258.47;;;43.76;nan
61086;BME280;46967;48.876;2.136;2023-05-07T02:55:53;101255.56;;;43.83;nan
61086;BME280;46967;48.876;2.136;2023-05-07T02:58:18;101265.97;;;43.86;nan
61086;BME280;46967;48.876;2.136;2023-05-07T03:00:44;101253.66;;;43.83;nan
61086;BME280;46967;48.876;2.136;2023-05-07T03:03:09;101259.44;;;43.65;nan
61086;BME280;46967;48.876;2.136;2023-05-07T03:05:36;101258.28;;;43.83;nan
61086;BME280;46967;48.876;2.136;2023-05-07T03:08:01;101256.44;;;43.88;nan
61086;BME280;46967;48.876;2.136;2023-05-07T03:10:26;101254.09;;;43.97;nan
61086;BME280;46967;48.876;2.136;2023-05-07T03:12:52;101259.44;;;43.87;nan
61086;BME280;46967;48.876;2.136;2023-05-07T03:15:17;101256.69;;;43.87;nan
61086;BME280;46967;48.876;2.136;2023-05-07T03:17:42;101262.28;;;43.97;nan
61086;BME280;46967;48.876;2.136;2023-05-07T03:20:08;101257.41;;;43.77;nan
61086;BME280;46967;48.876;2.136;2023-05-07T03:22:34;101252.13;;;43.92;nan
61086;BME280;46967;48.876;2.136;2023-05-07T03:25:00;101244.78;;;43.71;nan
61086;BME280;46967;48.876;2.136;2023-05-07T03:27:25;101240.09;;;43.44;nan
61086;BME280;46967;48.876;2.136;2023-05-07T03:29:50;101241.94;;;43.60;nan
61086;BME280;46967;48.876;2.136;2023-05-07T03:32:16;101242.81;;;43.66;nan
61086;BME280;46967;48.876;2.136;2023-05-07T03:34:41;101238.06;;;43.56;nan
61086;BME280;46967;48.876;2.136;2023-05-07T03:37:06;101243.78;;;43.55;nan
61086;BME280;46967;48.876;2.136;2023-05-07T03:39:32;101251.66;;;43.29;nan
61086;BME280;46967;48.876;2.136;2023-05-07T03:41:57;101248.34;;;43.27;nan
61086;BME280;46967;48.876;2.136;2023-05-07T03:44:23;101254.63;;;43.28;nan
61086;BME280;46967;48.876;2.136;2023-05-07T03:46:48;101253.13;;;43.37;nan
61086;BME280;46967;48.876;2.136;2023-05-07T03:49:13;101252.63;;;43.40;nan
61086;BME280;46967;48.876;2.136;2023-05-07T03:51:39;101253.91;;;43.54;nan
61086;BME280;46967;48.876;2.136;2023-05-07T03:54:04;101251.22;;;43.59;nan
61086;BME280;46967;48.876;2.136;2023-05-07T03:56:30;101259.09;;;43.34;nan
61086;BME280;46967;48.876;2.136;2023-05-07T03:58:56;101252.16;;;43.04;nan
61086;BME280;46967;48.876;2.136;2023-05-07T04:01:21;101255.22;;;42.90;nan
61086;BME280;46967;48.876;2.136;2023-05-07T04:03:47;101260.91;;;42.89;nan
61086;BME280;46967;48.876;2.136;2023-05-07T04:06:12;101267.16;;;42.67;nan
61086;BME280;46967;48.876;2.136;2023-05-07T04:08:37;101268.97;;;42.79;nan
61086;BME280;46967;48.876;2.136;2023-05-07T04:11:03;101277.16;;;42.79;nan
61086;BME280;46967;48.876;2.136;2023-05-07T04:13:29;101271.69;;;42.79;nan
61086;BME280;46967;48.876;2.136;2023-05-07T04:15:55;101267.47;;;42.88;nan
61086;BME280;46967;48.876;2.136;2023-05-07T04:18:21;101274.25;;;42.85;nan
61086;BME280;46967;48.876;2.136;2023-05-07T04:20:47;101278.97;;;42.73;nan
61086;BME280;46967;48.876;2.136;2023-05-07T04:23:13;101274.41;;;42.79;nan
61086;BME280;46967;48.876;2.136;2023-05-07T04:25:38;101276.72;;;42.87;nan
61086;BME280;46967;48.876;2.136;2023-05-07T04:28:04;101281.03;;;42.83;nan
61086;BME280;46967;48.876;2.136;2023-05-07T04:30:29;101277.03;;;43.07;nan
61086;BME280;46967;48.876;2.136;2023-05-07T04:32:54;101283.50;;;43.23;nan
61086;BME280;46967;48.876;2.136;2023-05-07T04:35:21;101278.97;;;43.51;nan
61086;BME280;46967;48.876;2.136;2023-05-07T04:37:46;101283.97;;;43.59;nan
61086;BME280;46967;48.876;2.136;2023-05-07T04:40:11;101291.53;;;43.52;nan
61086;BME280;46967;48.876;2.136;2023-05-07T04:42:37;101293.34;;;43.41;nan
61086;BME280;46967;48.876;2.136;2023-05-07T04:45:02;101286.19;;;43.63;nan
61086;BME280;46967;48.876;2.136;2023-05-07T04:47:28;101285.44;;;43.67;nan
61086;BME280;46967;48.876;2.136;2023-05-07T04:49:53;101287.16;;;43.73;nan
61086;BME280;46967;48.876;2.136;2023-05-07T04:52:19;101293.00;;;43.82;nan
61086;BME280;46967;48.876;2.136;2023-05-07T04:54:44;101292.19;;;43.82;nan
61086;BME280;46967;48.876;2.136;2023-05-07T04:57:09;101289.69;;;43.80;nan
61086;BME280;46967;48.876;2.136;2023-05-07T04:59:35;101291.09;;;43.60;nan
61086;BME280;46967;48.876;2.136;2023-05-07T05:02:00;101297.38;;;43.61;nan
61086;BME280;46967;48.876;2.136;2023-05-07T05:04:26;101297.19;;;43.68;nan
61086;BME280;46967;48.876;2.136;2023-05-07T05:06:52;101292.44;;;43.80;nan
61086;BME280;46967;48.876;2.136;2023-05-07T05:09:17;101300.03;;;43.78;nan
61086;BME280;46967;48.876;2.136;2023-05-07T05:11:42;101307.59;;;43.93;nan
61086;BME280;46967;48.876;2.136;2023-05-07T05:14:08;101300.94;;;43.84;nan
61086;BME280;46967;48.876;2.136;2023-05-07T05:16:33;101306.19;;;43.46;nan
61086;BME280;46967;48.876;2.136;2023-05-07T05:18:59;101309.50;;;43.26;nan
61086;BME280;46967;48.876;2.136;2023-05-07T05:21:24;101308.50;;;43.54;nan
61086;BME280;46967;48.876;2.136;2023-05-07T05:23:50;101314.34;;;43.63;nan
61086;BME280;46967;48.876;2.136;2023-05-07T05:26:15;101318.94;;;43.57;nan
61086;BME280;46967;48.876;2.136;2023-05-07T05:28:41;101323.16;;;43.70;nan
61086;BME280;46967;48.876;2.136;2023-05-07T05:31:06;101319.91;;;43.95;nan
61086;BME280;46967;48.876;2.136;2023-05-07T05:33:31;101327.28;;;43.95;nan
61086;BME280;46967;48.876;2.136;2023-05-07T05:35:57;101326.00;;;44.03;nan
61086;BME280;46967;48.876;2.136;2023-05-07T05:38:22;101323.00;;;44.04;nan
61086;BME280;46967;48.876;2.136;2023-05-07T05:40:47;101326.53;;;44.05;nan
61086;BME280;46967;48.876;2.136;2023-05-07T05:43:13;101327.06;;;44.02;nan
61086;BME280;46967;48.876;2.136;2023-05-07T05:45:39;101327.91;;;44.02;nan
61086;BME280;46967;48.876;2.136;2023-05-07T05:48:05;101327.78;;;43.92;nan
61086;BME280;46967;48.876;2.136;2023-05-07T05:50:30;101338.66;;;43.87;nan
61086;BME280;46967;48.876;2.136;2023-05-07T05:52:56;101326.72;;;43.93;nan
61086;BME280;46967;48.876;2.136;2023-05-07T05:55:21;101334.81;;;44.10;nan
61086;BME280;46967;48.876;2.136;2023-05-07T05:57:47;101325.97;;;44.25;nan
61086;BME280;46967;48.876;2.136;2023-05-07T06:00:13;101332.75;;;44.22;nan
61086;BME280;46967;48.876;2.136;2023-05-07T06:02:38;101334.22;;;44.08;nan
61086;BME280;46967;48.876;2.136;2023-05-07T06:05:04;101335.00;;;44.03;nan
61086;BME280;46967;48.876;2.136;2023-05-07T06:07:29;101332.34;;;44.08;nan
61086;BME280;46967;48.876;2.136;2023-05-07T06:09:55;101332.84;;;44.05;nan
61086;BME280;46967;48.876;2.136;2023-05-07T06:12:20;101334.19;;;44.03;nan
61086;BME280;46967;48.876;2.136;2023-05-07T06:14:46;101340.41;;;44.20;nan
61086;BME280;46967;48.876;2.136;2023-05-07T06:17:11;101334.56;;;44.11;nan
61086;BME280;46967;48.876;2.136;2023-05-07T06:19:36;101343.53;;;44.07;nan
61086;BME280;46967;48.876;2.136;2023-05-07T06:22:02;101343.66;;;43.95;nan
61086;BME280;46967;48.876;2.136;2023-05-07T06:24:27;101345.34;;;43.96;nan
61086;BME280;46967;48.876;2.136;2023-05-07T06:26:53;101355.88;;;43.87;nan
61086;BME280;46967;48.876;2.136;2023-05-07T06:29:18;101346.81;;;43.82;nan
61086;BME280;46967;48.876;2.136;2023-05-07T06:31:44;101345.84;;;43.93;nan
61086;BME280;46967;48.876;2.136;2023-05-07T06:34:10;101352.06;;;44.15;nan
61086;BME280;46967;48.876;2.136;2023-05-07T06:36:39;101350.50;;;43.92;nan
61086;BME280;46967;48.876;2.136;2023-05-07T06:39:04;101346.56;;;44.10;nan
61086;BME280;46967;48.876;2.136;2023-05-07T06:41:29;101356.09;;;44.08;nan
61086;BME280;46967;48.876;2.136;2023-05-07T06:43:55;101359.00;;;43.96;nan
61086;BME280;46967;48.876;2.136;2023-05-07T06:46:20;101363.31;;;43.92;nan
61086;BME280;46967;48.876;2.136;2023-05-07T06:48:45;101363.50;;;43.85;nan
61086;BME280;46967;48.876;2.136;2023-05-07T06:51:11;101364.91;;;43.88;nan
61086;BME280;46967;48.876;2.136;2023-05-07T06:53:36;101370.44;;;43.93;nan
61086;BME280;46967;48.876;2.136;2023-05-07T06:56:01;101378.34;;;44.17;nan
61086;BME280;46967;48.876;2.136;2023-05-07T06:58:27;101373.84;;;44.27;nan
61086;BME280;46967;48.876;2.136;2023-05-07T07:00:52;101370.13;;;44.39;nan
61086;BME280;46967;48.876;2.136;2023-05-07T07:03:18;101369.94;;;44.50;nan
61086;BME280;46967;48.876;2.136;2023-05-07T07:05:43;101372.47;;;44.57;nan
61086;BME280;46967;48.876;2.136;2023-05-07T07:08:09;101369.13;;;44.50;nan
61086;BME280;46967;48.876;2.136;2023-05-07T07:10:35;101371.69;;;44.35;nan
61086;BME280;46967;48.876;2.136;2023-05-07T07:13:00;101373.06;;;44.32;nan
61086;BME280;46967;48.876;2.136;2023-05-07T07:15:26;101377.81;;;44.42;nan
61086;BME280;46967;48.876;2.136;2023-05-07T07:17:51;101375.28;;;44.35;nan
61086;BME280;46967;48.876;2.136;2023-05-07T07:20:17;101376.41;;;44.39;nan
61086;BME280;46967;48.876;2.136;2023-05-07T07:22:42;101377.75;;;44.37;nan
61086;BME280;46967;48.876;2.136;2023-05-07T07:25:08;101381.06;;;44.39;nan
61086;BME280;46967;48.876;2.136;2023-05-07T07:27:33;101388.44;;;44.38;nan
61086;BME280;46967;48.876;2.136;2023-05-07T07:29:59;101384.56;;;44.34;nan
61086;BME280;46967;48.876;2.136;2023-05-07T07:32:24;101393.91;;;44.38;nan
61086;BME280;46967;48.876;2.136;2023-05-07T07:34:50;101390.47;;;44.53;nan
61086;BME280;46967;48.876;2.136;2023-05-07T07:37:16;101401.44;;;44.85;nan
61086;BME280;46967;48.876;2.136;2023-05-07T07:39:41;101398.91;;;44.79;nan
61086;BME280;46967;48.876;2.136;2023-05-07T07:42:06;101393.75;;;44.82;nan
61086;BME280;46967;48.876;2.136;2023-05-07T07:44:32;101393.69;;;44.72;nan
61086;BME280;46967;48.876;2.136;2023-05-07T07:46:57;101400.34;;;44.86;nan
61086;BME280;46967;48.876;2.136;2023-05-07T07:49:22;101395.38;;;44.78;nan
61086;BME280;46967;48.876;2.136;2023-05-07T07:51:48;101403.63;;;44.56;nan
61086;BME280;46967;48.876;2.136;2023-05-07T07:54:13;101404.72;;;44.55;nan
61086;BME280;46967;48.876;2.136;2023-05-07T07:56:38;101403.28;;;44.75;nan
61086;BME280;46967;48.876;2.136;2023-05-07T07:59:04;101408.00;;;44.84;nan
61086;BME280;46967;48.876;2.136;2023-05-07T08:01:30;101411.84;;;45.21;nan
61086;BME280;46967;48.876;2.136;2023-05-07T08:03:56;101407.28;;;45.37;nan
61086;BME280;46967;48.876;2.136;2023-05-07T08:06:23;101406.63;;;45.62;nan
61086;BME280;46967;48.876;2.136;2023-05-07T08:08:49;101412.28;;;45.50;nan
61086;BME280;46967;48.876;2.136;2023-05-07T08:11:14;101415.66;;;45.63;nan
61086;BME280;46967;48.876;2.136;2023-05-07T08:13:39;101412.75;;;45.80;nan
61086;BME280;46967;48.876;2.136;2023-05-07T08:16:05;101412.75;;;45.80;nan
61086;BME280;46967;48.876;2.136;2023-05-07T08:18:30;101418.13;;;45.69;nan
61086;BME280;46967;48.876;2.136;2023-05-07T08:20:56;101424.63;;;45.48;nan
61086;BME280;46967;48.876;2.136;2023-05-07T08:23:21;101433.16;;;45.56;nan
61086;BME280;46967;48.876;2.136;2023-05-07T08:25:48;101428.97;;;45.44;nan
61086;BME280;46967;48.876;2.136;2023-05-07T08:28:14;101427.91;;;45.45;nan
61086;BME280;46967;48.876;2.136;2023-05-07T08:30:39;101433.31;;;45.39;nan
61086;BME280;46967;48.876;2.136;2023-05-07T08:33:04;101426.34;;;45.21;nan
61086;BME280;46967;48.876;2.136;2023-05-07T08:35:30;101430.25;;;45.31;nan
61086;BME280;46967;48.876;2.136;2023-05-07T08:37:55;101438.84;;;45.45;nan
61086;BME280;46967;48.876;2.136;2023-05-07T08:40:25;101443.84;;;45.63;nan
61086;BME280;46967;48.876;2.136;2023-05-07T08:42:52;101437.16;;;45.38;nan
61086;BME280;46967;48.876;2.136;2023-05-07T08:45:19;101433.13;;;45.14;nan
61086;BME280;46967;48.876;2.136;2023-05-07T08:47:46;101444.59;;;45.43;nan
61086;BME280;46967;48.876;2.136;2023-05-07T08:50:12;101443.03;;;45.20;nan
61086;BME280;46967;48.876;2.136;2023-05-07T08:52:40;101444.03;;;45.03;nan
61086;BME280;46967;48.876;2.136;2023-05-07T08:55:06;101436.28;;;45.33;nan
61086;BME280;46967;48.876;2.136;2023-05-07T08:57:32;101443.22;;;45.46;nan
61086;BME280;46967;48.876;2.136;2023-05-07T08:59:57;101446.72;;;45.79;nan
61086;BME280;46967;48.876;2.136;2023-05-07T09:02:22;101444.78;;;45.79;nan
61086;BME280;46967;48.876;2.136;2023-05-07T09:04:48;101444.56;;;45.86;nan
61086;BME280;46967;48.876;2.136;2023-05-07T09:07:14;101443.91;;;45.68;nan
61086;BME280;46967;48.876;2.136;2023-05-07T09:09:39;101447.59;;;45.42;nan
61086;BME280;46967;48.876;2.136;2023-05-07T09:12:04;101447.00;;;45.39;nan
61086;BME280;46967;48.876;2.136;2023-05-07T09:14:30;101449.84;;;45.55;nan
61086;BME280;46967;48.876;2.136;2023-05-07T09:16:56;101441.97;;;45.69;nan
61086;BME280;46967;48.876;2.136;2023-05-07T09:19:25;101437.66;;;45.78;nan
61086;BME280;46967;48.876;2.136;2023-05-07T09:22:09;101441.56;;;46.03;nan
61086;BME280;46967;48.876;2.136;2023-05-07T09:24:35;101446.25;;;46.13;nan
61086;BME280;46967;48.876;2.136;2023-05-07T09:27:06;101442.47;;;46.19;nan
61086;BME280;46967;48.876;2.136;2023-05-07T09:29:32;101444.97;;;46.31;nan
61086;BME280;46967;48.876;2.136;2023-05-07T09:32:06;101442.81;;;46.48;nan
61086;BME280;46967;48.876;2.136;2023-05-07T09:34:32;101442.31;;;46.72;nan
61086;BME280;46967;48.876;2.136;2023-05-07T09:37:01;101447.22;;;46.70;nan
61086;BME280;46967;48.876;2.136;2023-05-07T09:39:38;101445.03;;;46.56;nan
61086;BME280;46967;48.876;2.136;2023-05-07T09:42:04;101447.72;;;46.46;nan
61086;BME280;46967;48.876;2.136;2023-05-07T09:44:31;101448.53;;;46.36;nan
61086;BME280;46967;48.876;2.136;2023-05-07T09:46:59;101448.13;;;45.97;nan
61086;BME280;46967;48.876;2.136;2023-05-07T09:49:29;101443.88;;;46.26;nan
61086;BME280;46967;48.876;2.136;2023-05-07T09:51:55;101446.91;;;46.40;nan
61086;BME280;46967;48.876;2.136;2023-05-07T09:54:22;101451.75;;;46.13;nan
61086;BME280;46967;48.876;2.136;2023-05-07T09:56:51;101449.06;;;46.18;nan
61086;BME280;46967;48.876;2.136;2023-05-07T09:59:17;101444.94;;;46.15;nan
61086;BME280;46967;48.876;2.136;2023-05-07T10:01:44;101447.00;;;45.82;nan
61086;BME280;46967;48.876;2.136;2023-05-07T10:04:10;101453.56;;;45.81;nan
61086;BME280;46967;48.876;2.136;2023-05-07T10:06:36;101457.59;;;45.68;nan
61086;BME280;46967;48.876;2.136;2023-05-07T10:09:05;101457.88;;;45.67;nan
61086;BME280;46967;48.876;2.136;2023-05-07T10:11:32;101462.41;;;45.99;nan
61086;BME280;46967;48.876;2.136;2023-05-07T10:13:59;101471.72;;;45.92;nan
61086;BME280;46967;48.876;2.136;2023-05-07T10:16:27;101468.09;;;45.82;nan
61086;BME280;46967;48.876;2.136;2023-05-07T10:18:53;101473.41;;;45.18;nan
61086;BME280;46967;48.876;2.136;2023-05-07T10:21:21;101470.88;;;45.07;nan
61086;BME280;46967;48.876;2.136;2023-05-07T10:23:50;101472.09;;;45.21;nan
61086;BME280;46967;48.876;2.136;2023-05-07T10:26:18;101470.31;;;45.42;nan
61086;BME280;46967;48.876;2.136;2023-05-07T10:28:47;101473.19;;;45.63;nan
61086;BME280;46967;48.876;2.136;2023-05-07T10:31:36;101472.78;;;45.86;nan
61086;BME280;46967;48.876;2.136;2023-05-07T10:34:11;101473.41;;;46.14;nan
61086;BME280;46967;48.876;2.136;2023-05-07T10:36:38;101478.66;;;46.16;nan
61086;BME280;46967;48.876;2.136;2023-05-07T10:39:05;101473.53;;;46.40;nan
61086;BME280;46967;48.876;2.136;2023-05-07T10:41:31;101474.69;;;46.54;nan
61086;BME280;46967;48.876;2.136;2023-05-07T10:43:56;101474.41;;;46.71;nan
61086;BME280;46967;48.876;2.136;2023-05-07T10:46:22;101475.50;;;46.80;nan
61086;BME280;46967;48.876;2.136;2023-05-07T10:51:29;101473.06;;;47.15;nan
61086;BME280;46967;48.876;2.136;2023-05-07T10:56:42;101476.47;;;47.82;nan
61086;BME280;46967;48.876;2.136;2023-05-07T11:04:20;101482.19;;;48.06;nan
61086;BME280;46967;48.876;2.136;2023-05-07T11:10:00;101479.00;;;47.74;nan
61086;BME280;46967;48.876;2.136;2023-05-07T11:15:10;101483.03;;;47.92;nan
61086;BME280;46967;48.876;2.136;2023-05-07T11:17:58;101478.88;;;47.99;nan
61086;BME280;46967;48.876;2.136;2023-05-07T11:20:49;101478.03;;;48.14;nan
61086;BME280;46967;48.876;2.136;2023-05-07T11:26:09;101475.38;;;48.43;nan
61086;BME280;46967;48.876;2.136;2023-05-07T11:28:40;101465.09;;;48.59;nan
61086;BME280;46967;48.876;2.136;2023-05-07T11:31:06;101474.00;;;48.81;nan
61086;BME280;46967;48.876;2.136;2023-05-07T11:33:33;101480.03;;;48.88;nan
61086;BME280;46967;48.876;2.136;2023-05-07T11:35:59;101478.06;;;49.23;nan
61086;BME280;46967;48.876;2.136;2023-05-07T11:38:25;101474.59;;;49.36;nan
61086;BME280;46967;48.876;2.136;2023-05-07T11:40:58;101480.31;;;49.21;nan
61086;BME280;46967;48.876;2.136;2023-05-07T11:43:28;101483.25;;;49.78;nan
61086;BME280;46967;48.876;2.136;2023-05-07T11:45:53;101476.06;;;49.58;nan
61086;BME280;46967;48.876;2.136;2023-05-07T11:48:20;101475.78;;;49.30;nan
61086;BME280;46967;48.876;2.136;2023-05-07T11:53:28;101474.03;;;49.39;nan
61086;BME280;46967;48.876;2.136;2023-05-07T11:56:00;101472.53;;;48.93;nan
61086;BME280;46967;48.876;2.136;2023-05-07T11:58:25;101474.03;;;48.36;nan
61086;BME280;46967;48.876;2.136;2023-05-07T12:00:52;101480.31;;;47.86;nan
61086;BME280;46967;48.876;2.136;2023-05-07T12:03:18;101471.28;;;47.76;nan
61086;BME280;46967;48.876;2.136;2023-05-07T12:05:45;101475.16;;;47.69;nan
61086;BME280;46967;48.876;2.136;2023-05-07T12:08:20;101478.19;;;47.73;nan
61086;BME280;46967;48.876;2.136;2023-05-07T12:10:50;101478.19;;;47.63;nan
61086;BME280;46967;48.876;2.136;2023-05-07T12:15:42;101477.44;;;47.11;nan
61086;BME280;46967;48.876;2.136;2023-05-07T12:18:07;101489.50;;;46.79;nan
61086;BME280;46967;48.876;2.136;2023-05-07T12:20:34;101480.16;;;46.64;nan
61086;BME280;46967;48.876;2.136;2023-05-07T12:23:01;101489.22;;;46.75;nan
61086;BME280;46967;48.876;2.136;2023-05-07T12:25:26;101487.88;;;47.14;nan
61086;BME280;46967;48.876;2.136;2023-05-07T12:27:52;101495.53;;;47.48;nan
61086;BME280;46967;48.876;2.136;2023-05-07T12:30:18;101507.06;;;47.50;nan
61086;BME280;46967;48.876;2.136;2023-05-07T12:32:44;101503.00;;;47.11;nan
61086;BME280;46967;48.876;2.136;2023-05-07T12:35:10;101510.97;;;47.13;nan
61086;BME280;46967;48.876;2.136;2023-05-07T12:37:35;101524.59;;;46.56;nan
61086;BME280;46967;48.876;2.136;2023-05-07T12:40:05;101531.78;;;46.78;nan
61086;BME280;46967;48.876;2.136;2023-05-07T12:42:38;101528.38;;;45.82;nan
61086;BME280;46967;48.876;2.136;2023-05-07T12:45:15;101538.09;;;46.05;nan
61086;BME280;46967;48.876;2.136;2023-05-07T12:47:45;101536.97;;;46.01;nan
61086;BME280;46967;48.876;2.136;2023-05-07T12:50:11;101547.41;;;45.99;nan
61086;BME280;46967;48.876;2.136;2023-05-07T12:52:36;101542.41;;;45.90;nan
61086;BME280;46967;48.876;2.136;2023-05-07T12:55:06;101545.03;;;45.70;nan
61086;BME280;46967;48.876;2.136;2023-05-07T12:57:40;101539.38;;;45.87;nan
61086;BME280;46967;48.876;2.136;2023-05-07T13:00:07;101540.84;;;46.05;nan
61086;BME280;46967;48.876;2.136;2023-05-07T13:02:33;101540.53;;;46.01;nan
61086;BME280;46967;48.876;2.136;2023-05-07T13:04:59;101554.47;;;45.89;nan
61086;BME280;46967;48.876;2.136;2023-05-07T13:07:25;101552.50;;;45.80;nan
61086;BME280;46967;48.876;2.136;2023-05-07T13:09:50;101561.66;;;43.71;nan
61086;BME280;46967;48.876;2.136;2023-05-07T13:12:16;101553.34;;;44.88;nan
61086;BME280;46967;48.876;2.136;2023-05-07T13:14:41;101564.59;;;45.19;nan
61086;BME280;46967;48.876;2.136;2023-05-07T13:17:06;101555.13;;;44.11;nan
61086;BME280;46967;48.876;2.136;2023-05-07T13:19:32;101556.13;;;44.22;nan
61086;BME280;46967;48.876;2.136;2023-05-07T13:21:57;101563.81;;;43.69;nan
61086;BME280;46967;48.876;2.136;2023-05-07T13:24:22;101561.50;;;44.83;nan
61086;BME280;46967;48.876;2.136;2023-05-07T13:26:48;101564.13;;;45.27;nan
61086;BME280;46967;48.876;2.136;2023-05-07T13:29:13;101573.25;;;45.75;nan